sensor_id;sensor_type;location;lat;lon;timestamp;temperature;humidity
44447;DHT22;30152;52.066;5.358;2022-07-18T09:03:59;26.70;76.80
44447;DHT22;30152;52.066;5.358;2022-07-18T10:15:09;27.70;70.70
44447;DHT22;30152;52.066;5.358;2022-07-18T10:20:05;28.30;70.50
44447;DHT22;30152;52.066;5.358;2022-07-18T10:22:39;28.20;67.90
44447;DHT22;30152;52.066;5.358;2022-07-18T10:25:13;28.50;68.40
44447;DHT22;30152;52.066;5.358;2022-07-18T10:27:52;28.50;66.40
44447;DHT22;30152;52.066;5.358;2022-07-18T10:30:29;28.70;66.50
44447;DHT22;30152;52.066;5.358;2022-07-18T10:51:13;28.90;60.50
44447;DHT22;30152;52.066;5.358;2022-07-18T10:59:21;29.30;60.20
44447;DHT22;30152;52.066;5.358;2022-07-18T11:01:53;28.90;57.10
44447;DHT22;30152;52.066;5.358;2022-07-18T11:04:27;29.00;54.20
44447;DHT22;30152;52.066;5.358;2022-07-18T11:07:08;28.80;55.10
44447;DHT22;30152;52.066;5.358;2022-07-18T11:25:18;29.50;54.30
44447;DHT22;30152;52.066;5.358;2022-07-18T11:27:44;30.00;54.50
44447;DHT22;30152;52.066;5.358;2022-07-18T12:19:39;31.00;51.60
44447;DHT22;30152;52.066;5.358;2022-07-18T12:22:09;30.90;51.40
44447;DHT22;30152;52.066;5.358;2022-07-18T12:30:17;30.30;52.40
44447;DHT22;30152;52.066;5.358;2022-07-18T12:32:47;30.40;50.30
44447;DHT22;30152;52.066;5.358;2022-07-18T12:37:58;30.30;49.80
44447;DHT22;30152;52.066;5.358;2022-07-18T12:40:39;30.10;49.20
44447;DHT22;30152;52.066;5.358;2022-07-18T12:43:11;30.20;50.70
44447;DHT22;30152;52.066;5.358;2022-07-18T12:45:37;30.30;51.70
44447;DHT22;30152;52.066;5.358;2022-07-18T12:48:05;30.60;51.90
44447;DHT22;30152;52.066;5.358;2022-07-18T12:50:31;30.60;50.50
44447;DHT22;30152;52.066;5.358;2022-07-18T12:52:57;30.50;49.80
44447;DHT22;30152;52.066;5.358;2022-07-18T12:55:22;30.30;49.60
44447;DHT22;30152;52.066;5.358;2022-07-18T12:57:49;30.10;49.80
44447;DHT22;30152;52.066;5.358;2022-07-18T13:00:15;30.00;50.00
44447;DHT22;30152;52.066;5.358;2022-07-18T13:02:44;30.20;50.60
44447;DHT22;30152;52.066;5.358;2022-07-18T13:05:10;30.40;51.40
44447;DHT22;30152;52.066;5.358;2022-07-18T13:07:36;30.20;50.60
44447;DHT22;30152;52.066;5.358;2022-07-18T13:10:03;30.30;50.60
44447;DHT22;30152;52.066;5.358;2022-07-18T13:14:55;30.30;49.60
44447;DHT22;30152;52.066;5.358;2022-07-18T13:22:13;30.60;48.80
44447;DHT22;30152;52.066;5.358;2022-07-18T13:31:57;30.70;48.80
44447;DHT22;30152;52.066;5.358;2022-07-18T13:34:23;30.60;49.40
44447;DHT22;30152;52.066;5.358;2022-07-18T13:36:50;30.20;49.60
44447;DHT22;30152;52.066;5.358;2022-07-18T13:39:19;30.40;51.20
44447;DHT22;30152;52.066;5.358;2022-07-18T13:41:44;30.30;50.90
44447;DHT22;30152;52.066;5.358;2022-07-18T13:44:10;30.70;51.00
44447;DHT22;30152;52.066;5.358;2022-07-18T13:49:02;30.90;49.60
44447;DHT22;30152;52.066;5.358;2022-07-18T13:51:27;31.30;49.40
44447;DHT22;30152;52.066;5.358;2022-07-18T13:53:53;30.90;48.20
44447;DHT22;30152;52.066;5.358;2022-07-18T13:56:19;30.80;49.00
44447;DHT22;30152;52.066;5.358;2022-07-18T14:01:12;30.70;46.50
44447;DHT22;30152;52.066;5.358;2022-07-18T14:03:38;31.20;47.40
44447;DHT22;30152;52.066;5.358;2022-07-18T14:06:03;31.30;47.50
44447;DHT22;30152;52.066;5.358;2022-07-18T14:32:50;31.80;46.90
44447;DHT22;30152;52.066;5.358;2022-07-18T14:35:16;31.60;46.00
44447;DHT22;30152;52.066;5.358;2022-07-18T14:37:41;31.90;46.10
44447;DHT22;30152;52.066;5.358;2022-07-18T14:40:07;32.20;45.90
44447;DHT22;30152;52.066;5.358;2022-07-18T14:42:33;32.30;46.60
44447;DHT22;30152;52.066;5.358;2022-07-18T14:44:59;31.80;45.30
44447;DHT22;30152;52.066;5.358;2022-07-18T14:47:24;31.90;45.90
44447;DHT22;30152;52.066;5.358;2022-07-18T14:49:50;32.60;46.60
44447;DHT22;30152;52.066;5.358;2022-07-18T14:52:15;31.60;44.70
44447;DHT22;30152;52.066;5.358;2022-07-18T14:54:41;32.00;46.90
44447;DHT22;30152;52.066;5.358;2022-07-18T14:57:07;32.10;46.80
44447;DHT22;30152;52.066;5.358;2022-07-18T14:59:33;32.50;45.10
44447;DHT22;30152;52.066;5.358;2022-07-18T15:01:59;32.30;44.00
44447;DHT22;30152;52.066;5.358;2022-07-18T15:04:31;32.40;44.50
44447;DHT22;30152;52.066;5.358;2022-07-18T15:06:57;32.30;43.80
44447;DHT22;30152;52.066;5.358;2022-07-18T15:11:48;32.60;44.80
44447;DHT22;30152;52.066;5.358;2022-07-18T15:14:14;33.10;43.60
44447;DHT22;30152;52.066;5.358;2022-07-18T15:19:07;33.30;44.30
44447;DHT22;30152;52.066;5.358;2022-07-18T15:21:32;33.60;43.60
44447;DHT22;30152;52.066;5.358;2022-07-18T15:23:58;33.20;44.50
44447;DHT22;30152;52.066;5.358;2022-07-18T15:26:24;33.50;44.30
44447;DHT22;30152;52.066;5.358;2022-07-18T15:28:49;33.50;43.90
44447;DHT22;30152;52.066;5.358;2022-07-18T15:31:15;33.70;44.80
44447;DHT22;30152;52.066;5.358;2022-07-18T15:33:41;33.50;44.50
44447;DHT22;30152;52.066;5.358;2022-07-18T15:36:06;33.60;43.60
44447;DHT22;30152;52.066;5.358;2022-07-18T15:38:32;33.90;42.30
44447;DHT22;30152;52.066;5.358;2022-07-18T15:40:58;33.00;42.30
44447;DHT22;30152;52.066;5.358;2022-07-18T15:43:23;33.30;43.30
44447;DHT22;30152;52.066;5.358;2022-07-18T15:45:49;32.50;42.80
44447;DHT22;30152;52.066;5.358;2022-07-18T15:48:14;32.40;42.60
44447;DHT22;30152;52.066;5.358;2022-07-18T15:50:40;32.40;43.10
44447;DHT22;30152;52.066;5.358;2022-07-18T15:53:06;32.60;43.60
44447;DHT22;30152;52.066;5.358;2022-07-18T15:55:31;32.70;43.30
44447;DHT22;30152;52.066;5.358;2022-07-18T15:57:58;32.20;43.70
44447;DHT22;30152;52.066;5.358;2022-07-18T16:00:24;32.20;44.10
44447;DHT22;30152;52.066;5.358;2022-07-18T16:02:50;32.10;43.30
44447;DHT22;30152;52.066;5.358;2022-07-18T16:05:15;31.80;43.40
44447;DHT22;30152;52.066;5.358;2022-07-18T16:07:41;31.60;43.50
44447;DHT22;30152;52.066;5.358;2022-07-18T16:10:07;31.80;42.90
44447;DHT22;30152;52.066;5.358;2022-07-18T16:12:33;31.80;42.40
44447;DHT22;30152;52.066;5.358;2022-07-18T16:14:59;32.10;43.00
44447;DHT22;30152;52.066;5.358;2022-07-18T16:17:25;32.10;42.50
44447;DHT22;30152;52.066;5.358;2022-07-18T16:22:17;31.60;42.50
44447;DHT22;30152;52.066;5.358;2022-07-18T16:24:43;32.00;43.10
44447;DHT22;30152;52.066;5.358;2022-07-18T16:27:10;31.60;43.80
44447;DHT22;30152;52.066;5.358;2022-07-18T16:29:36;31.70;43.70
44447;DHT22;30152;52.066;5.358;2022-07-18T16:32:01;31.50;43.50
44447;DHT22;30152;52.066;5.358;2022-07-18T16:34:27;31.30;43.90
44447;DHT22;30152;52.066;5.358;2022-07-18T16:36:52;31.70;44.80
44447;DHT22;30152;52.066;5.358;2022-07-18T16:39:18;31.80;44.70
44447;DHT22;30152;52.066;5.358;2022-07-18T16:41:44;31.20;44.10
44447;DHT22;30152;52.066;5.358;2022-07-18T16:44:09;31.30;43.90
44447;DHT22;30152;52.066;5.358;2022-07-18T16:46:35;31.30;43.40
44447;DHT22;30152;52.066;5.358;2022-07-18T16:49:01;31.40;43.40
44447;DHT22;30152;52.066;5.358;2022-07-18T16:51:29;31.30;43.40
44447;DHT22;30152;52.066;5.358;2022-07-18T16:53:55;31.10;43.60
44447;DHT22;30152;52.066;5.358;2022-07-18T16:56:22;31.20;44.10
44447;DHT22;30152;52.066;5.358;2022-07-18T16:58:47;31.00;43.30
44447;DHT22;30152;52.066;5.358;2022-07-18T17:01:13;30.90;44.40
44447;DHT22;30152;52.066;5.358;2022-07-18T17:03:39;30.90;43.70
44447;DHT22;30152;52.066;5.358;2022-07-18T17:06:05;30.80;45.00
44447;DHT22;30152;52.066;5.358;2022-07-18T17:08:31;30.90;46.00
44447;DHT22;30152;52.066;5.358;2022-07-18T17:10:57;31.20;46.90
44447;DHT22;30152;52.066;5.358;2022-07-18T17:13:23;30.90;45.00
44447;DHT22;30152;52.066;5.358;2022-07-18T17:15:49;30.70;45.70
44447;DHT22;30152;52.066;5.358;2022-07-18T17:18:16;30.80;46.30
44447;DHT22;30152;52.066;5.358;2022-07-18T17:20:43;30.60;45.80
44447;DHT22;30152;52.066;5.358;2022-07-18T17:23:13;31.00;45.20
44447;DHT22;30152;52.066;5.358;2022-07-18T17:25:39;30.80;45.50
44447;DHT22;30152;52.066;5.358;2022-07-18T17:28:05;30.60;46.30
44447;DHT22;30152;52.066;5.358;2022-07-18T17:30:31;30.70;46.60
44447;DHT22;30152;52.066;5.358;2022-07-18T17:32:57;30.60;45.70
44447;DHT22;30152;52.066;5.358;2022-07-18T17:35:23;30.40;48.40
44447;DHT22;30152;52.066;5.358;2022-07-18T17:37:50;30.30;49.50
44447;DHT22;30152;52.066;5.358;2022-07-18T17:40:16;30.10;48.60
44447;DHT22;30152;52.066;5.358;2022-07-18T17:42:42;30.10;48.00
44447;DHT22;30152;52.066;5.358;2022-07-18T17:45:09;29.90;51.30
44447;DHT22;30152;52.066;5.358;2022-07-18T17:47:34;29.70;53.50
44447;DHT22;30152;52.066;5.358;2022-07-18T17:50:05;29.50;53.80
44447;DHT22;30152;52.066;5.358;2022-07-18T17:52:32;29.80;54.10
44447;DHT22;30152;52.066;5.358;2022-07-18T17:54:57;29.70;55.70
44447;DHT22;30152;52.066;5.358;2022-07-18T17:57:24;29.30;56.70
44447;DHT22;30152;52.066;5.358;2022-07-18T18:02:15;29.40;59.60
44447;DHT22;30152;52.066;5.358;2022-07-18T18:04:43;29.30;60.40
44447;DHT22;30152;52.066;5.358;2022-07-18T18:07:10;29.10;60.50
44447;DHT22;30152;52.066;5.358;2022-07-18T18:09:35;28.90;61.90
44447;DHT22;30152;52.066;5.358;2022-07-18T18:12:01;28.80;60.40
44447;DHT22;30152;52.066;5.358;2022-07-18T18:14:26;28.70;61.90
44447;DHT22;30152;52.066;5.358;2022-07-18T18:16:52;28.60;61.60
44447;DHT22;30152;52.066;5.358;2022-07-18T18:19:17;28.60;63.10
44447;DHT22;30152;52.066;5.358;2022-07-18T18:21:43;28.10;63.30
44447;DHT22;30152;52.066;5.358;2022-07-18T18:24:08;28.00;62.90
44447;DHT22;30152;52.066;5.358;2022-07-18T19:05:31;25.00;72.90
44447;DHT22;30152;52.066;5.358;2022-07-18T19:07:57;25.70;74.00
44447;DHT22;30152;52.066;5.358;2022-07-18T19:10:22;25.80;76.80
44447;DHT22;30152;52.066;5.358;2022-07-18T19:17:41;25.30;77.00
44447;DHT22;30152;52.066;5.358;2022-07-18T19:22:32;25.40;78.10
44447;DHT22;30152;52.066;5.358;2022-07-18T19:24:58;25.20;78.20
44447;DHT22;30152;52.066;5.358;2022-07-18T20:52:39;21.40;95.10
44447;DHT22;30152;52.066;5.358;2022-07-18T20:55:05;21.60;95.30
